createdAt,value
2023-03-29T00:00:14.648Z,949.7100
2023-03-29T00:01:35.051Z,949.8154
2023-03-29T00:02:17.918Z,949.8492
2023-03-29T00:03:19.729Z,949.9054
2023-03-29T00:04:21.226Z,950.0184
2023-03-29T00:05:22.853Z,950.1031
2023-03-29T00:06:24.532Z,950.1646
2023-03-29T00:07:26.183Z,950.1870
2023-03-29T00:08:27.836Z,950.1700
2023-03-29T00:09:29.484Z,950.1454
2023-03-29T00:10:31.120Z,950.1677
2023-03-29T00:11:32.800Z,950.1531
2023-03-29T00:12:34.428Z,950.1038
2023-03-29T00:13:36.128Z,950.1431
2023-03-29T00:14:37.734Z,950.1516
2023-03-29T00:15:39.405Z,950.1777
2023-03-29T00:16:41.071Z,950.2015
2023-03-29T00:17:42.767Z,950.2216
2023-03-29T00:18:44.385Z,950.2508
2023-03-29T00:19:46.023Z,950.2615
2023-03-29T00:20:47.666Z,950.2600
2023-03-29T00:21:49.322Z,950.3108
2023-03-29T00:22:50.967Z,950.3054
2023-03-29T00:23:52.670Z,950.3115
2023-03-29T00:24:54.319Z,950.3585
2023-03-29T00:25:55.957Z,950.3954
2023-03-29T00:26:57.610Z,950.4800
2023-03-29T00:27:59.268Z,950.5916
2023-03-29T00:29:00.943Z,950.6031
2023-03-29T00:30:02.570Z,950.5939
2023-03-29T00:31:04.430Z,950.5862
2023-03-29T00:32:05.877Z,950.5408
2023-03-29T00:33:07.554Z,950.5023
2023-03-29T00:34:09.199Z,950.4915
2023-03-29T00:35:10.825Z,950.5054
2023-03-29T00:36:12.497Z,950.4861
2023-03-29T00:37:14.112Z,950.4584
2023-03-29T00:38:15.798Z,950.3800
2023-03-29T00:39:17.449Z,950.3431
2023-03-29T00:40:19.099Z,950.2808
2023-03-29T00:41:20.734Z,950.2423
2023-03-29T00:42:22.407Z,950.2139
2023-03-29T00:43:24.041Z,950.1407
2023-03-29T00:44:25.744Z,950.0677
2023-03-29T00:45:27.354Z,950.0062
2023-03-29T00:46:29.108Z,949.9915
2023-03-29T00:47:30.671Z,950.0361
2023-03-29T00:48:32.383Z,950.0477
2023-03-29T00:49:33.994Z,950.0431
2023-03-29T00:50:35.647Z,950.0177
2023-03-29T00:51:37.291Z,950.0046
2023-03-29T00:52:38.950Z,949.9892
2023-03-29T00:53:40.580Z,949.9808
2023-03-29T00:54:42.294Z,949.9877
2023-03-29T00:55:43.895Z,949.8977
2023-03-29T00:56:45.578Z,949.8785
2023-03-29T00:57:47.200Z,949.8284
2023-03-29T00:58:48.871Z,949.8023
2023-03-29T00:59:50.579Z,949.8254
2023-03-29T01:00:52.206Z,949.8600
2023-03-29T01:01:53.871Z,949.9061
2023-03-29T01:02:55.538Z,949.9446
2023-03-29T01:03:57.154Z,949.9800
2023-03-29T01:04:58.817Z,950.0100
2023-03-29T01:06:00.462Z,949.9954
2023-03-29T01:07:02.159Z,949.9462
2023-03-29T01:08:03.757Z,949.8969
2023-03-29T01:09:05.419Z,949.8839
2023-03-29T01:10:07.085Z,949.8708
2023-03-29T01:11:08.735Z,949.8708
2023-03-29T01:12:10.388Z,949.8446
2023-03-29T01:13:12.043Z,949.8423
2023-03-29T01:14:13.684Z,949.8385
2023-03-29T01:15:15.398Z,949.8239
2023-03-29T01:16:17.094Z,949.8023
2023-03-29T01:17:18.683Z,949.7985
2023-03-29T01:18:20.307Z,949.7739
2023-03-29T01:19:21.977Z,949.7585
2023-03-29T01:20:23.635Z,949.7154
2023-03-29T01:21:25.285Z,949.7023
2023-03-29T01:22:26.931Z,949.7108
2023-03-29T01:23:28.599Z,949.6992
2023-03-29T01:24:30.225Z,949.6700
2023-03-29T01:25:31.918Z,949.6292
2023-03-29T01:26:33.540Z,949.6215
2023-03-29T01:27:35.208Z,949.6223
2023-03-29T01:28:36.847Z,949.5892
2023-03-29T01:29:38.507Z,949.5546
2023-03-29T01:30:40.173Z,949.5392
2023-03-29T01:31:41.902Z,949.5254
2023-03-29T01:32:43.450Z,949.5185
2023-03-29T01:33:45.142Z,949.5108
2023-03-29T01:34:46.802Z,949.4723
2023-03-29T01:35:48.521Z,949.4761
2023-03-29T01:36:50.073Z,949.5046
2023-03-29T01:37:51.760Z,949.4885
2023-03-29T01:38:53.401Z,949.4962
2023-03-29T01:39:55.061Z,949.5177
2023-03-29T01:40:56.722Z,949.5323
2023-03-29T01:41:58.367Z,949.5115
2023-03-29T01:43:00.024Z,949.5239
2023-03-29T01:44:01.692Z,949.5192
2023-03-29T01:45:03.325Z,949.4769
2023-03-29T01:46:05.454Z,949.4400
2023-03-29T01:47:06.630Z,949.4246
2023-03-29T01:48:08.303Z,949.4023
2023-03-29T01:49:09.950Z,949.3800
2023-03-29T01:50:11.620Z,949.3915
2023-03-29T01:51:13.316Z,949.3900
2023-03-29T01:52:14.941Z,949.4084
2023-03-29T01:53:16.572Z,949.4084
2023-03-29T01:54:18.245Z,949.3992
2023-03-29T01:55:19.879Z,949.3908
2023-03-29T01:56:21.571Z,949.3777
2023-03-29T01:57:23.276Z,949.3638
2023-03-29T01:58:24.861Z,949.3554
2023-03-29T01:59:26.500Z,949.2792
2023-03-29T02:00:28.152Z,949.2277
2023-03-29T02:01:29.841Z,949.2500
2023-03-29T02:02:31.560Z,949.2777
2023-03-29T02:03:33.199Z,949.2769
2023-03-29T02:04:34.796Z,949.2285
2023-03-29T02:05:36.409Z,949.1823
2023-03-29T02:06:38.100Z,949.1985
2023-03-29T02:07:39.713Z,949.2177
2023-03-29T02:08:41.386Z,949.2215
2023-03-29T02:09:43.022Z,949.2485
2023-03-29T02:10:44.692Z,949.2654
2023-03-29T02:11:46.353Z,949.2869
2023-03-29T02:12:48.001Z,949.2808
2023-03-29T02:13:49.641Z,949.2615
2023-03-29T02:14:51.304Z,949.2423
2023-03-29T02:15:53.117Z,949.2354
2023-03-29T02:16:54.633Z,949.2392
2023-03-29T02:17:56.262Z,949.2277
2023-03-29T02:18:57.933Z,949.2392
2023-03-29T02:19:59.549Z,949.2223
2023-03-29T02:21:01.441Z,949.1915
2023-03-29T02:22:02.892Z,949.1885
2023-03-29T02:23:04.537Z,949.1661
2023-03-29T02:24:06.156Z,949.1446
2023-03-29T02:25:07.841Z,949.1292
2023-03-29T02:26:09.460Z,949.1092
2023-03-29T02:27:11.178Z,949.0946
2023-03-29T02:28:12.781Z,949.1069
2023-03-29T02:29:14.446Z,949.0446
2023-03-29T02:30:16.083Z,949.0046
2023-03-29T02:31:17.788Z,949.0046
2023-03-29T02:32:19.405Z,949.0308
2023-03-29T02:33:21.048Z,949.0254
2023-03-29T02:34:22.756Z,948.9746
2023-03-29T02:35:24.359Z,948.9569
2023-03-29T02:36:25.987Z,948.9815
2023-03-29T02:37:27.686Z,948.9985
2023-03-29T02:38:29.303Z,949.0108
2023-03-29T02:39:30.972Z,949.0146
2023-03-29T02:40:32.609Z,948.9877
2023-03-29T02:41:34.262Z,948.9515
2023-03-29T02:42:35.949Z,948.9500
2023-03-29T02:43:37.572Z,948.9477
2023-03-29T02:44:39.278Z,948.9354
2023-03-29T02:45:40.936Z,948.9362
2023-03-29T02:46:42.691Z,948.9485
2023-03-29T02:47:44.364Z,948.9161
2023-03-29T02:48:45.887Z,948.9169
2023-03-29T02:49:50.343Z,948.9208
2023-03-29T02:50:49.215Z,948.9315
2023-03-29T02:51:50.844Z,948.9792
2023-03-29T02:52:52.562Z,948.9985
2023-03-29T02:53:54.148Z,948.9777
2023-03-29T02:54:55.829Z,948.9731
2023-03-29T02:55:57.449Z,948.9577
2023-03-29T02:56:59.160Z,948.9492
2023-03-29T02:58:00.780Z,948.9485
2023-03-29T02:59:02.433Z,948.9485
2023-03-29T03:00:04.075Z,948.9608
2023-03-29T03:01:05.730Z,948.9362
2023-03-29T03:02:07.435Z,948.9238
2023-03-29T03:03:09.214Z,948.9761
2023-03-29T03:04:10.749Z,949.0239
2023-03-29T03:05:12.352Z,949.0170
2023-03-29T03:06:14.931Z,948.9977
2023-03-29T03:07:15.663Z,949.0070
2023-03-29T03:08:17.304Z,948.9969
2023-03-29T03:09:18.949Z,948.9646
2023-03-29T03:10:20.601Z,948.9885
2023-03-29T03:11:22.260Z,948.9869
2023-03-29T03:12:23.902Z,948.9877
2023-03-29T03:13:25.590Z,948.9708
2023-03-29T03:14:27.209Z,948.9954
2023-03-29T03:15:28.875Z,949.0254
2023-03-29T03:16:30.588Z,949.0416
2023-03-29T03:17:32.195Z,949.0754
2023-03-29T03:18:33.998Z,949.0308
2023-03-29T03:19:35.485Z,948.9854
2023-03-29T03:20:37.095Z,948.9730
2023-03-29T03:21:38.786Z,948.9861
2023-03-29T03:22:40.420Z,949.0046
2023-03-29T03:23:42.123Z,948.9892
2023-03-29T03:24:43.704Z,948.9792
2023-03-29T03:25:45.366Z,948.9854
2023-03-29T03:26:47.016Z,948.9716
2023-03-29T03:27:48.691Z,948.9338
2023-03-29T03:28:50.351Z,948.9462
2023-03-29T03:29:51.982Z,948.9577
2023-03-29T03:30:53.640Z,948.9769
2023-03-29T03:31:55.310Z,949.0231
2023-03-29T03:32:56.953Z,949.0000
2023-03-29T03:33:58.594Z,949.0162
2023-03-29T03:35:00.216Z,948.9908
2023-03-29T03:36:01.983Z,948.9823
2023-03-29T03:37:03.522Z,948.9515
2023-03-29T03:38:05.195Z,948.9708
2023-03-29T03:39:06.841Z,948.9285
2023-03-29T03:40:08.495Z,948.9215
2023-03-29T03:41:10.133Z,948.9054
2023-03-29T03:42:11.804Z,948.9115
2023-03-29T03:43:13.434Z,948.9500
2023-03-29T03:44:15.134Z,948.9362
2023-03-29T03:45:16.745Z,948.9092
2023-03-29T03:46:18.500Z,948.9507
2023-03-29T03:47:20.046Z,949.0523
2023-03-29T03:48:21.726Z,949.1077
2023-03-29T03:49:23.408Z,949.1646
2023-03-29T03:50:25.024Z,949.1138
2023-03-29T03:51:26.666Z,949.0385
2023-03-29T03:52:28.336Z,948.9608
2023-03-29T03:53:29.973Z,948.8392
2023-03-29T03:54:31.664Z,948.8907
2023-03-29T03:55:33.309Z,948.9123
2023-03-29T03:56:34.964Z,949.0385
2023-03-29T03:57:36.584Z,949.1031
2023-03-29T03:58:38.254Z,948.9646
2023-03-29T03:59:39.919Z,948.8700
2023-03-29T04:00:41.563Z,948.9977
2023-03-29T04:01:43.208Z,948.9646
2023-03-29T04:02:44.904Z,948.9654
2023-03-29T04:03:46.543Z,948.8931
2023-03-29T04:04:48.188Z,948.9277
2023-03-29T04:05:49.812Z,948.9569
2023-03-29T04:06:51.497Z,948.8800
2023-03-29T04:07:53.121Z,948.8715
2023-03-29T04:08:54.792Z,948.8923
2023-03-29T04:09:56.462Z,948.9492
2023-03-29T04:10:58.107Z,948.9408
2023-03-29T04:11:59.745Z,949.0162
2023-03-29T04:13:01.462Z,949.0100
2023-03-29T04:14:03.056Z,948.8846
2023-03-29T04:15:04.748Z,948.9308
2023-03-29T04:16:06.392Z,948.9631
2023-03-29T04:17:08.052Z,948.9600
2023-03-29T04:18:09.757Z,948.9769
2023-03-29T04:19:11.349Z,949.0031
2023-03-29T04:20:13.015Z,948.9746
2023-03-29T04:21:14.648Z,948.9946
2023-03-29T04:22:16.284Z,949.0431
2023-03-29T04:23:17.975Z,949.0292
2023-03-29T04:24:19.604Z,948.9946
2023-03-29T04:25:21.294Z,949.0070
2023-03-29T04:26:22.915Z,948.9923
2023-03-29T04:27:24.565Z,949.0200
2023-03-29T04:28:26.253Z,949.0807
2023-03-29T04:29:27.853Z,949.0577
2023-03-29T04:30:29.546Z,949.1046
2023-03-29T04:31:31.272Z,949.1146
2023-03-29T04:32:32.855Z,949.0831
2023-03-29T04:33:34.472Z,949.0854
2023-03-29T04:34:36.140Z,949.1100
2023-03-29T04:35:37.851Z,949.0946
2023-03-29T04:36:39.453Z,949.0508
2023-03-29T04:37:41.078Z,949.0331
2023-03-29T04:38:46.097Z,949.0438
2023-03-29T04:39:44.380Z,949.0269
2023-03-29T04:40:46.072Z,948.9946
2023-03-29T04:41:47.687Z,949.0200
2023-03-29T04:42:49.365Z,949.0423
2023-03-29T04:43:51.000Z,948.9761
2023-03-29T04:44:52.698Z,948.9769
2023-03-29T04:45:54.379Z,948.9315
2023-03-29T04:46:55.992Z,948.9077
2023-03-29T04:47:57.663Z,948.9515
2023-03-29T04:48:59.317Z,948.9938
2023-03-29T04:50:00.912Z,948.9362
2023-03-29T04:51:02.777Z,948.9261
2023-03-29T04:52:04.226Z,948.9138
2023-03-29T04:53:05.896Z,948.9469
2023-03-29T04:54:07.530Z,948.9562
2023-03-29T04:55:09.232Z,948.9700
2023-03-29T04:56:10.858Z,949.0630
2023-03-29T04:57:12.559Z,949.0423
2023-03-29T04:58:14.121Z,949.0700
2023-03-29T04:59:15.795Z,949.0723
2023-03-29T05:00:17.463Z,949.0115
2023-03-29T05:01:19.171Z,949.0023
2023-03-29T05:02:20.736Z,949.0100
2023-03-29T05:03:22.418Z,949.0515
2023-03-29T05:04:24.065Z,949.0807
2023-03-29T05:05:25.732Z,949.1169
2023-03-29T05:06:27.376Z,949.1015
2023-03-29T05:07:29.085Z,949.1116
2023-03-29T05:08:30.664Z,949.1746
2023-03-29T05:09:35.037Z,949.2007
2023-03-29T05:10:33.977Z,949.2338
2023-03-29T05:11:35.678Z,949.1600
2023-03-29T05:12:37.285Z,948.9700
2023-03-29T05:13:38.937Z,949.0500
2023-03-29T05:14:40.589Z,949.1639
2023-03-29T05:15:42.267Z,949.0162
2023-03-29T05:16:43.999Z,948.8538
2023-03-29T05:17:45.576Z,948.7285
2023-03-29T05:18:47.214Z,948.7100
2023-03-29T05:19:48.883Z,948.7223
2023-03-29T05:20:50.535Z,948.7592
2023-03-29T05:21:52.219Z,948.8146
2023-03-29T05:22:53.858Z,948.7916
2023-03-29T05:23:55.503Z,948.7246
2023-03-29T05:24:57.135Z,948.7923
2023-03-29T05:25:58.808Z,948.8746
2023-03-29T05:27:00.468Z,948.9708
2023-03-29T05:28:02.112Z,948.9554
2023-03-29T05:29:03.749Z,948.9915
2023-03-29T05:30:05.422Z,949.0469
2023-03-29T05:31:07.068Z,949.0277
2023-03-29T05:32:08.857Z,949.0177
2023-03-29T05:33:10.405Z,949.0485
2023-03-29T05:34:12.032Z,949.1161
2023-03-29T05:35:13.661Z,949.1623
2023-03-29T05:36:15.408Z,949.1323
2023-03-29T05:37:17.024Z,949.1208
2023-03-29T05:38:18.648Z,949.1100
2023-03-29T05:39:20.283Z,949.0423
2023-03-29T05:40:21.966Z,949.0746
2023-03-29T05:41:23.622Z,949.0646
2023-03-29T05:42:25.283Z,949.0938
2023-03-29T05:43:26.898Z,949.1146
2023-03-29T05:44:28.581Z,949.0831
2023-03-29T05:45:30.276Z,948.9900
2023-03-29T05:46:31.896Z,948.9792
2023-03-29T05:47:33.637Z,948.9562
2023-03-29T05:48:35.303Z,948.9231
2023-03-29T05:49:36.852Z,948.9415
2023-03-29T05:50:38.476Z,948.9754
2023-03-29T05:51:40.145Z,949.0369
2023-03-29T05:52:41.810Z,949.0400
2023-03-29T05:53:43.466Z,949.0162
2023-03-29T05:54:45.135Z,948.9600
2023-03-29T05:55:46.782Z,948.9146
2023-03-29T05:56:48.456Z,948.9200
2023-03-29T05:57:50.106Z,948.9208
2023-03-29T05:58:53.657Z,948.9308
2023-03-29T05:59:53.411Z,948.9369
2023-03-29T06:00:55.010Z,948.9454
2023-03-29T06:01:56.734Z,948.9346
2023-03-29T06:03:03.780Z,948.9477
2023-03-29T06:04:00.102Z,948.9350
2023-03-29T06:05:01.657Z,948.9377
2023-03-29T06:06:03.310Z,948.9492
2023-03-29T06:07:04.934Z,948.9385
2023-03-29T06:08:06.631Z,948.9746
2023-03-29T06:09:08.250Z,949.0262
2023-03-29T06:10:09.918Z,949.0762
2023-03-29T06:11:11.543Z,949.0415
2023-03-29T06:12:13.216Z,949.0115
2023-03-29T06:13:14.878Z,948.9954
2023-03-29T06:14:16.516Z,949.0054
2023-03-29T06:15:18.156Z,949.0000
2023-03-29T06:16:19.839Z,949.0369
2023-03-29T06:17:21.457Z,949.1531
2023-03-29T06:18:23.180Z,949.2423
2023-03-29T06:19:24.764Z,949.2023
2023-03-29T06:20:26.447Z,949.1231
2023-03-29T06:21:28.063Z,949.0508
2023-03-29T06:22:29.754Z,949.0185
2023-03-29T06:23:31.411Z,949.0123
2023-03-29T06:24:33.044Z,949.0162
2023-03-29T06:25:34.699Z,949.0062
2023-03-29T06:26:36.349Z,949.0085
2023-03-29T06:27:38.008Z,949.0531
2023-03-29T06:28:39.702Z,949.1061
2023-03-29T06:29:41.298Z,949.1123
2023-03-29T06:30:42.962Z,949.1046
2023-03-29T06:31:44.668Z,949.1254
2023-03-29T06:32:46.332Z,949.1161
2023-03-29T06:33:47.931Z,949.1569
2023-03-29T06:34:49.600Z,949.1838
2023-03-29T06:35:51.305Z,949.1931
2023-03-29T06:36:52.888Z,949.1870
2023-03-29T06:37:54.562Z,949.2023
2023-03-29T06:38:56.240Z,949.2123
2023-03-29T06:39:57.841Z,949.2139
2023-03-29T06:40:59.610Z,949.2169
2023-03-29T06:42:10.057Z,949.2077
2023-03-29T06:43:02.804Z,949.1975
2023-03-29T06:44:04.450Z,949.2292
2023-03-29T06:45:06.138Z,949.2208
2023-03-29T06:46:07.790Z,949.2131
2023-03-29T06:47:09.528Z,949.1877
2023-03-29T06:48:11.171Z,949.1492
2023-03-29T06:49:12.869Z,949.1431
2023-03-29T06:50:14.445Z,949.1846
2023-03-29T06:51:16.118Z,949.2315
2023-03-29T06:52:17.744Z,949.2277
2023-03-29T06:53:19.415Z,949.2323
2023-03-29T06:54:21.142Z,949.2462
2023-03-29T06:55:22.721Z,949.2585
2023-03-29T06:56:24.370Z,949.2977
2023-03-29T06:57:26.177Z,949.3569
2023-03-29T06:58:27.662Z,949.3615
2023-03-29T06:59:29.368Z,949.4338
2023-03-29T07:00:30.988Z,949.4654
2023-03-29T07:01:32.651Z,949.4515
2023-03-29T07:02:34.285Z,949.4185
2023-03-29T07:03:35.959Z,949.3700
2023-03-29T07:04:37.670Z,949.3092
2023-03-29T07:05:39.311Z,949.2846
2023-03-29T07:06:40.889Z,949.3577
2023-03-29T07:07:42.559Z,949.4054
2023-03-29T07:08:44.202Z,949.4230
2023-03-29T07:09:45.880Z,949.3969
2023-03-29T07:10:47.602Z,949.3654
2023-03-29T07:11:49.168Z,949.3369
2023-03-29T07:12:50.796Z,949.2877
2023-03-29T07:13:52.490Z,949.2615
2023-03-29T07:14:54.147Z,949.2430
2023-03-29T07:15:55.838Z,949.2446
2023-03-29T07:16:57.445Z,949.2600
2023-03-29T07:17:59.181Z,949.3246
2023-03-29T07:19:00.738Z,949.4193
2023-03-29T07:20:02.499Z,949.4592
2023-03-29T07:21:04.154Z,949.4154
2023-03-29T07:22:05.708Z,949.4039
2023-03-29T07:23:07.370Z,949.3700
2023-03-29T07:24:09.007Z,949.3239
2023-03-29T07:25:10.693Z,949.3208
2023-03-29T07:26:12.323Z,949.3431
2023-03-29T07:27:13.977Z,949.3730
2023-03-29T07:28:15.670Z,949.3815
2023-03-29T07:29:17.288Z,949.3500
2023-03-29T07:30:18.942Z,949.3115
2023-03-29T07:31:20.558Z,949.3223
2023-03-29T07:32:22.497Z,949.3585
2023-03-29T07:33:23.998Z,949.4208
2023-03-29T07:34:25.540Z,949.4600
2023-03-29T07:35:27.189Z,949.4669
2023-03-29T07:36:28.870Z,949.4669
2023-03-29T07:37:30.493Z,949.5239
2023-03-29T07:38:32.179Z,949.5961
2023-03-29T07:39:33.797Z,949.6223
2023-03-29T07:40:35.476Z,949.6285
2023-03-29T07:41:37.099Z,949.6215
2023-03-29T07:42:38.792Z,949.5769
2023-03-29T07:43:40.422Z,949.5308
2023-03-29T07:44:42.097Z,949.5239
2023-03-29T07:45:43.743Z,949.5423
2023-03-29T07:46:45.412Z,949.5692
2023-03-29T07:47:47.032Z,949.5939
2023-03-29T07:48:48.696Z,949.6292
2023-03-29T07:49:50.330Z,949.6554
2023-03-29T07:50:52.048Z,949.6908
2023-03-29T07:51:53.635Z,949.7023
2023-03-29T07:52:55.286Z,949.6970
2023-03-29T07:53:56.958Z,949.6870
2023-03-29T07:54:58.589Z,949.6623
2023-03-29T07:56:00.270Z,949.6630
2023-03-29T07:57:01.978Z,949.6730
2023-03-29T07:58:03.548Z,949.6970
2023-03-29T07:59:05.221Z,949.6992
2023-03-29T08:00:06.856Z,949.7123
2023-03-29T08:01:08.639Z,949.6777
2023-03-29T08:02:10.161Z,949.6385
2023-03-29T08:03:11.895Z,949.5916
2023-03-29T08:04:13.534Z,949.5708
2023-03-29T08:05:17.476Z,949.5847
2023-03-29T08:06:16.838Z,949.5641
2023-03-29T08:07:18.967Z,949.5630
2023-03-29T08:08:20.078Z,949.5508
2023-03-29T08:09:21.766Z,949.5415
2023-03-29T08:10:23.384Z,949.5461
2023-03-29T08:11:25.074Z,949.5600
2023-03-29T08:12:26.700Z,949.5777
2023-03-29T08:13:28.362Z,949.5900
2023-03-29T08:14:30.009Z,949.6092
2023-03-29T08:15:31.667Z,949.6439
2023-03-29T08:16:33.406Z,949.6892
2023-03-29T08:17:35.082Z,949.7238
2023-03-29T08:18:36.737Z,949.7338
2023-03-29T08:19:38.290Z,949.7192
2023-03-29T08:20:39.919Z,949.7069
2023-03-29T08:21:41.619Z,949.7600
2023-03-29T08:22:43.228Z,949.8069
2023-03-29T08:23:44.918Z,949.8077
2023-03-29T08:24:46.547Z,949.8015
2023-03-29T08:25:48.247Z,949.8939
2023-03-29T08:26:49.883Z,949.8600
2023-03-29T08:27:51.520Z,949.7747
2023-03-29T08:28:53.157Z,949.8115
2023-03-29T08:29:54.836Z,949.8608
2023-03-29T08:30:56.485Z,949.8185
2023-03-29T08:31:58.159Z,949.7839
2023-03-29T08:32:59.787Z,949.8208
2023-03-29T08:34:01.437Z,949.8146
2023-03-29T08:35:03.078Z,949.7946
2023-03-29T08:36:04.780Z,949.8015
2023-03-29T08:37:06.414Z,949.8331
2023-03-29T08:38:08.067Z,949.8431
2023-03-29T08:39:09.686Z,949.8346
2023-03-29T08:40:11.363Z,949.8085
2023-03-29T08:41:13.000Z,949.8000
2023-03-29T08:42:14.689Z,949.8277
2023-03-29T08:43:16.287Z,949.8569
2023-03-29T08:44:17.974Z,949.8431
2023-03-29T08:45:19.646Z,949.8231
2023-03-29T08:46:21.346Z,949.7946
2023-03-29T08:47:22.933Z,949.7762
2023-03-29T08:48:24.573Z,949.7808
2023-03-29T08:49:26.251Z,949.8085
2023-03-29T08:50:27.888Z,949.8262
2023-03-29T08:51:29.532Z,949.8369
2023-03-29T08:52:31.290Z,949.7538
2023-03-29T08:53:32.858Z,949.7300
2023-03-29T08:54:34.517Z,949.7215
2023-03-29T08:55:36.145Z,949.7446
2023-03-29T08:56:37.835Z,949.7708
2023-03-29T08:57:39.559Z,949.8008
2023-03-29T08:58:41.134Z,949.7977
2023-03-29T08:59:42.743Z,949.8207
2023-03-29T09:00:44.431Z,949.8400
2023-03-29T09:01:48.447Z,949.8454
2023-03-29T09:02:47.829Z,949.8416
2023-03-29T09:03:49.473Z,949.8469
2023-03-29T09:04:51.013Z,949.8523
2023-03-29T09:05:52.649Z,949.8369
2023-03-29T09:06:54.339Z,949.8500
2023-03-29T09:07:55.976Z,949.8454
2023-03-29T09:08:57.633Z,949.8477
2023-03-29T09:09:59.263Z,949.8408
2023-03-29T09:11:01.091Z,949.8346
2023-03-29T09:12:02.570Z,949.8492
2023-03-29T09:13:04.299Z,949.8592
2023-03-29T09:14:05.879Z,949.8754
2023-03-29T09:15:07.549Z,949.8823
2023-03-29T09:16:09.173Z,949.8923
2023-03-29T09:17:10.868Z,949.8907
2023-03-29T09:18:12.556Z,949.8608
2023-03-29T09:19:14.172Z,949.8585
2023-03-29T09:20:15.802Z,949.8630
2023-03-29T09:21:17.462Z,949.8700
2023-03-29T09:22:20.078Z,949.8538
2023-03-29T09:23:20.793Z,949.8308
2023-03-29T09:24:22.423Z,949.8262
2023-03-29T09:25:24.097Z,949.7961
2023-03-29T09:26:25.740Z,949.7831
2023-03-29T09:27:27.393Z,949.7570
2023-03-29T09:28:29.049Z,949.7469
2023-03-29T09:29:30.703Z,949.7361
2023-03-29T09:30:32.360Z,949.7577
2023-03-29T09:31:34.042Z,949.7615
2023-03-29T09:32:35.706Z,949.7639
2023-03-29T09:33:37.406Z,949.7777
2023-03-29T09:34:38.970Z,949.7923
2023-03-29T09:35:40.640Z,949.7861
2023-03-29T09:36:42.269Z,949.7608
2023-03-29T09:37:43.934Z,949.7839
2023-03-29T09:38:45.604Z,949.7792
2023-03-29T09:39:47.267Z,949.7577
2023-03-29T09:40:48.900Z,949.7477
2023-03-29T09:41:50.545Z,949.7469
2023-03-29T09:42:52.331Z,949.7531
2023-03-29T09:43:53.896Z,949.7585
2023-03-29T09:44:55.489Z,949.7777
2023-03-29T09:45:57.238Z,949.8000
2023-03-29T09:46:58.857Z,949.8146
2023-03-29T09:48:00.572Z,949.8115
2023-03-29T09:49:02.169Z,949.8315
2023-03-29T09:50:03.799Z,949.8439
2023-03-29T09:51:05.431Z,949.8654
2023-03-29T09:52:07.075Z,949.8730
2023-03-29T09:53:08.726Z,949.8546
2023-03-29T09:54:10.436Z,949.8339
2023-03-29T09:55:12.030Z,949.8146
2023-03-29T09:56:13.699Z,949.8023
2023-03-29T09:57:15.415Z,949.8000
2023-03-29T09:58:17.026Z,949.7885
2023-03-29T09:59:18.691Z,949.7938
2023-03-29T10:00:20.313Z,949.7700
2023-03-29T10:01:21.949Z,949.7562
2023-03-29T10:02:23.628Z,949.7392
2023-03-29T10:03:25.241Z,949.7385
2023-03-29T10:04:26.992Z,949.7415
2023-03-29T10:05:28.548Z,949.7300
2023-03-29T10:06:30.215Z,949.7338
2023-03-29T10:07:31.852Z,949.7531
2023-03-29T10:08:33.578Z,949.7338
2023-03-29T10:09:35.200Z,949.6931
2023-03-29T10:10:36.889Z,949.6638
2023-03-29T10:11:38.498Z,949.6369
2023-03-29T10:12:40.138Z,949.6307
2023-03-29T10:13:41.777Z,949.6354
2023-03-29T10:14:43.468Z,949.6492
2023-03-29T10:15:45.103Z,949.6738
2023-03-29T10:16:46.874Z,949.7115
2023-03-29T10:17:48.467Z,949.7108
2023-03-29T10:18:50.061Z,949.7238
2023-03-29T10:19:51.741Z,949.7607
2023-03-29T10:20:53.384Z,949.7785
2023-03-29T10:21:55.023Z,949.7823
2023-03-29T10:22:56.674Z,949.8092
2023-03-29T10:23:58.304Z,949.8246
2023-03-29T10:25:00.031Z,949.7992
2023-03-29T10:26:01.625Z,949.8100
2023-03-29T10:27:03.290Z,949.7885
2023-03-29T10:28:04.935Z,949.7400
2023-03-29T10:29:06.594Z,949.7523
2023-03-29T10:30:08.253Z,949.7677
2023-03-29T10:31:09.928Z,949.7600
2023-03-29T10:32:11.574Z,949.7754
2023-03-29T10:33:13.219Z,949.7816
2023-03-29T10:34:14.830Z,949.7739
2023-03-29T10:35:16.536Z,949.8154
2023-03-29T10:36:18.156Z,949.8138
2023-03-29T10:37:19.818Z,949.8223
2023-03-29T10:38:21.486Z,949.8069
2023-03-29T10:39:23.112Z,949.7669
2023-03-29T10:40:24.787Z,949.6815
2023-03-29T10:41:26.414Z,949.6154
2023-03-29T10:42:28.047Z,949.6093
2023-03-29T10:43:29.799Z,949.5969
2023-03-29T10:44:33.174Z,949.5984
2023-03-29T10:45:33.073Z,949.5615
2023-03-29T10:46:34.789Z,949.5723
2023-03-29T10:47:36.361Z,949.5408
2023-03-29T10:48:38.023Z,949.4531
2023-03-29T10:49:39.656Z,949.3877
2023-03-29T10:50:41.367Z,949.3723
2023-03-29T10:51:43.018Z,949.3446
2023-03-29T10:52:44.650Z,949.2492
2023-03-29T10:53:46.325Z,949.1315
2023-03-29T10:54:47.956Z,949.1561
2023-03-29T10:55:49.657Z,949.1592
2023-03-29T10:56:52.558Z,949.2123
2023-03-29T10:57:52.925Z,949.1877
2023-03-29T10:58:54.574Z,949.1738
2023-03-29T10:59:56.218Z,949.1223
2023-03-29T11:00:57.875Z,949.1031
2023-03-29T11:01:59.561Z,949.0746
2023-03-29T11:03:01.217Z,949.1446
2023-03-29T11:04:02.909Z,949.2123
2023-03-29T11:05:04.441Z,949.2331
2023-03-29T11:06:06.141Z,949.2446
2023-03-29T11:07:07.751Z,949.2685
2023-03-29T11:08:09.439Z,949.2993
2023-03-29T11:09:11.054Z,949.2538
2023-03-29T11:10:12.738Z,949.2577
2023-03-29T11:11:14.406Z,949.2623
2023-03-29T11:12:16.659Z,949.2254
2023-03-29T11:13:17.694Z,949.2438
2023-03-29T11:14:19.331Z,949.2938
2023-03-29T11:15:20.950Z,949.2623
2023-03-29T11:16:22.906Z,949.2223
2023-03-29T11:17:24.275Z,949.2400
2023-03-29T11:18:25.929Z,949.2508
2023-03-29T11:19:27.574Z,949.2408
2023-03-29T11:20:29.241Z,949.2223
2023-03-29T11:21:30.897Z,949.2000
2023-03-29T11:22:32.560Z,949.2100
2023-03-29T11:23:34.196Z,949.1738
2023-03-29T11:24:35.875Z,949.1915
2023-03-29T11:25:37.478Z,949.2039
2023-03-29T11:26:39.203Z,949.1746
2023-03-29T11:27:40.787Z,949.1954
2023-03-29T11:28:42.468Z,949.1400
2023-03-29T11:29:44.126Z,949.1046
2023-03-29T11:30:45.798Z,949.0931
2023-03-29T11:31:47.508Z,949.1100
2023-03-29T11:32:49.086Z,949.1592
2023-03-29T11:33:50.713Z,949.1531
2023-03-29T11:34:52.384Z,949.1277
2023-03-29T11:35:54.064Z,949.1484
2023-03-29T11:36:55.727Z,949.1462
2023-03-29T11:37:57.313Z,949.1646
2023-03-29T11:38:58.968Z,949.1362
2023-03-29T11:40:00.611Z,949.1392
2023-03-29T11:41:02.596Z,949.1431
2023-03-29T11:42:03.935Z,949.1331
2023-03-29T11:43:05.576Z,949.1292
2023-03-29T11:44:07.236Z,949.1270
2023-03-29T11:45:08.874Z,949.1462
2023-03-29T11:46:10.523Z,949.1285
2023-03-29T11:47:12.233Z,949.1561
2023-03-29T11:48:13.821Z,949.2146
2023-03-29T11:49:15.489Z,949.1423
2023-03-29T11:50:17.142Z,949.1531
2023-03-29T11:51:18.791Z,949.1131
2023-03-29T11:52:20.468Z,949.0662
2023-03-29T11:53:22.080Z,949.0354
2023-03-29T11:54:23.758Z,949.0538
2023-03-29T11:55:25.398Z,949.0277
2023-03-29T11:56:27.042Z,949.0562
2023-03-29T11:57:28.861Z,949.0385
2023-03-29T11:58:30.344Z,949.0523
2023-03-29T11:59:31.992Z,949.0453
2023-03-29T12:00:33.659Z,949.0423
2023-03-29T12:01:35.299Z,949.0508
2023-03-29T12:02:37.105Z,949.0461
2023-03-29T12:03:38.797Z,949.0423